KMKG/MKG METAR and TAF weather

Enter ICAO airport designator
Station Type Date Time Source
KMKG METAR 2019/06/20 06:55 UTC NOAA

KMKG 200655Z AUTO 05009G19KT 9SM -RA BKN033 BKN050 OVC095 17/15 A2964 RMK AO2 SLP035 P0006 T01720150


Station Type Date Time Source
KMKG Decoded METAR 2019/06/20 06:55 UTC NOAA

MUSKEGON COUNTY AIRPORT, MI, United States (KMKG) 43-10N 086-14W 191M
Jun 20, 2019 - 02:55 AM EDT / 2019.06.20 0655 UTC
Wind: from the NE (050 degrees) at 10 MPH (9 KT) gusting to 22 MPH (19 KT):0
Visibility: 9 mile(s):0
Sky conditions: overcast
Weather: light rain
Precipitation last hour: 0.06 inches
Temperature: 63.0 F (17.2 C)
Dew Point: 59.0 F (15.0 C)
Relative Humidity: 86%
Pressure (altimeter): 29.64 in. Hg (1003 hPa)
ob: KMKG 200655Z AUTO 05009G19KT 9SM -RA BKN033 BKN050 OVC095 17/15 A2964 RMK AO2 SLP035 P0006 T01720150
cycle: 7

Station Type Date Time Source
KMKG TAF 2019/06/20 06:42 UTC NOAA

TAF KMKG 200540Z 2006/2106 05006KT 4SM -RA BR OVC010
FM201400 04007KT 6SM -SHRA BR OVC015
FM201800 06010KT P6SM VCSH OVC025
FM202000 03006KT P6SM VCSH BKN050
FM202200 00000KT P6SM SCT070

Example: see airport list